sensor_id;sensor_type;location;lat;lon;timestamp;pressure;altitude;pressure_sealevel;temperature;humidity
11223;BME280;5668;52.012;8.724;2023-04-20T00:00:03;100620.16;;;10.48;48.58
11223;BME280;5668;52.012;8.724;2023-04-20T00:02:36;100615.78;;;10.48;48.48
11223;BME280;5668;52.012;8.724;2023-04-20T00:05:04;100617.66;;;10.46;49.03
11223;BME280;5668;52.012;8.724;2023-04-20T00:07:32;100619.31;;;10.47;48.80
11223;BME280;5668;52.012;8.724;2023-04-20T00:10:02;100615.97;;;10.45;49.10
11223;BME280;5668;52.012;8.724;2023-04-20T00:12:30;100609.94;;;10.45;49.53
11223;BME280;5668;52.012;8.724;2023-04-20T00:14:57;100606.56;;;10.44;49.84
11223;BME280;5668;52.012;8.724;2023-04-20T00:17:25;100613.50;;;10.44;50.57
11223;BME280;5668;52.012;8.724;2023-04-20T00:19:52;100615.16;;;10.45;51.18
11223;BME280;5668;52.012;8.724;2023-04-20T00:22:19;100609.84;;;10.46;51.45
11223;BME280;5668;52.012;8.724;2023-04-20T00:24:46;100604.88;;;10.43;51.85
11223;BME280;5668;52.012;8.724;2023-04-20T00:27:15;100591.25;;;10.40;52.51
11223;BME280;5668;52.012;8.724;2023-04-20T00:29:42;100604.72;;;10.32;54.72
11223;BME280;5668;52.012;8.724;2023-04-20T00:32:09;100592.56;;;10.33;56.02
11223;BME280;5668;52.012;8.724;2023-04-20T00:34:36;100589.34;;;10.29;56.71
11223;BME280;5668;52.012;8.724;2023-04-20T00:37:03;100591.38;;;10.24;58.21
11223;BME280;5668;52.012;8.724;2023-04-20T00:39:31;100591.59;;;10.21;58.52
11223;BME280;5668;52.012;8.724;2023-04-20T00:42:03;100590.13;;;10.17;59.22
11223;BME280;5668;52.012;8.724;2023-04-20T00:44:32;100581.84;;;10.10;60.43
11223;BME280;5668;52.012;8.724;2023-04-20T00:47:00;100576.75;;;10.09;61.07
11223;BME280;5668;52.012;8.724;2023-04-20T00:49:29;100582.88;;;10.08;61.22
11223;BME280;5668;52.012;8.724;2023-04-20T00:51:57;100576.13;;;10.05;61.42
11223;BME280;5668;52.012;8.724;2023-04-20T00:54:24;100568.44;;;10.04;61.66
11223;BME280;5668;52.012;8.724;2023-04-20T00:56:53;100568.34;;;10.05;61.97
11223;BME280;5668;52.012;8.724;2023-04-20T00:59:21;100566.75;;;10.03;62.14
11223;BME280;5668;52.012;8.724;2023-04-20T01:01:49;100567.78;;;10.00;62.35
11223;BME280;5668;52.012;8.724;2023-04-20T01:04:17;100561.13;;;9.96;62.83
11223;BME280;5668;52.012;8.724;2023-04-20T01:06:44;100564.72;;;9.94;63.08
11223;BME280;5668;52.012;8.724;2023-04-20T01:09:12;100567.53;;;9.91;63.38
11223;BME280;5668;52.012;8.724;2023-04-20T01:11:39;100566.88;;;9.87;63.56
11223;BME280;5668;52.012;8.724;2023-04-20T01:14:06;100563.47;;;9.87;64.25
11223;BME280;5668;52.012;8.724;2023-04-20T01:16:34;100562.75;;;9.85;64.50
11223;BME280;5668;52.012;8.724;2023-04-20T01:19:03;100560.16;;;9.85;64.19
11223;BME280;5668;52.012;8.724;2023-04-20T01:21:30;100554.84;;;9.86;64.48
11223;BME280;5668;52.012;8.724;2023-04-20T01:23:59;100550.47;;;9.87;64.79
11223;BME280;5668;52.012;8.724;2023-04-20T01:26:26;100552.38;;;9.85;65.49
11223;BME280;5668;52.012;8.724;2023-04-20T01:28:53;100549.03;;;9.83;65.74
11223;BME280;5668;52.012;8.724;2023-04-20T01:31:21;100556.06;;;9.81;66.36
11223;BME280;5668;52.012;8.724;2023-04-20T01:33:48;100546.69;;;9.78;66.60
11223;BME280;5668;52.012;8.724;2023-04-20T01:36:16;100545.16;;;9.76;67.42
11223;BME280;5668;52.012;8.724;2023-04-20T01:38:43;100545.63;;;9.68;67.48
11223;BME280;5668;52.012;8.724;2023-04-20T01:41:11;100543.97;;;9.67;67.43
11223;BME280;5668;52.012;8.724;2023-04-20T01:43:39;100539.78;;;9.64;67.62
11223;BME280;5668;52.012;8.724;2023-04-20T01:46:07;100538.09;;;9.63;68.23
11223;BME280;5668;52.012;8.724;2023-04-20T01:48:34;100541.63;;;9.62;68.11
11223;BME280;5668;52.012;8.724;2023-04-20T01:51:01;100529.78;;;9.58;67.79
11223;BME280;5668;52.012;8.724;2023-04-20T01:53:29;100527.38;;;9.55;68.88
11223;BME280;5668;52.012;8.724;2023-04-20T01:55:56;100522.31;;;9.54;68.47
11223;BME280;5668;52.012;8.724;2023-04-20T01:58:24;100522.56;;;9.49;68.71
11223;BME280;5668;52.012;8.724;2023-04-20T02:00:52;100523.78;;;9.44;68.23
11223;BME280;5668;52.012;8.724;2023-04-20T02:03:19;100533.72;;;9.37;68.72
11223;BME280;5668;52.012;8.724;2023-04-20T02:05:48;100534.25;;;9.28;69.54
11223;BME280;5668;52.012;8.724;2023-04-20T02:08:15;100535.41;;;9.24;69.66
11223;BME280;5668;52.012;8.724;2023-04-20T02:10:42;100536.31;;;9.23;70.14
11223;BME280;5668;52.012;8.724;2023-04-20T02:13:10;100537.41;;;9.19;70.71
11223;BME280;5668;52.012;8.724;2023-04-20T02:15:38;100532.59;;;9.13;70.39
11223;BME280;5668;52.012;8.724;2023-04-20T02:18:06;100541.13;;;9.01;70.89
11223;BME280;5668;52.012;8.724;2023-04-20T02:20:34;100536.09;;;8.98;72.15
11223;BME280;5668;52.012;8.724;2023-04-20T02:23:01;100534.34;;;8.98;71.86
11223;BME280;5668;52.012;8.724;2023-04-20T02:25:29;100527.94;;;8.89;72.39
11223;BME280;5668;52.012;8.724;2023-04-20T02:27:56;100525.56;;;8.86;72.66
11223;BME280;5668;52.012;8.724;2023-04-20T02:30:23;100532.75;;;8.81;72.67
11223;BME280;5668;52.012;8.724;2023-04-20T02:32:52;100515.75;;;8.77;73.64
11223;BME280;5668;52.012;8.724;2023-04-20T02:35:19;100515.53;;;8.80;72.83
11223;BME280;5668;52.012;8.724;2023-04-20T02:37:47;100514.38;;;8.86;73.95
11223;BME280;5668;52.012;8.724;2023-04-20T02:40:14;100512.22;;;8.78;73.91
11223;BME280;5668;52.012;8.724;2023-04-20T02:42:42;100518.97;;;8.81;73.45
11223;BME280;5668;52.012;8.724;2023-04-20T02:45:10;100516.38;;;8.81;73.79
11223;BME280;5668;52.012;8.724;2023-04-20T02:47:37;100506.13;;;8.79;73.83
11223;BME280;5668;52.012;8.724;2023-04-20T02:50:07;100511.31;;;8.79;73.93
11223;BME280;5668;52.012;8.724;2023-04-20T02:52:35;100507.03;;;8.78;73.81
11223;BME280;5668;52.012;8.724;2023-04-20T02:55:02;100501.88;;;8.78;74.17
11223;BME280;5668;52.012;8.724;2023-04-20T02:57:29;100499.28;;;8.78;75.08
11223;BME280;5668;52.012;8.724;2023-04-20T02:59:57;100499.28;;;8.78;75.09
11223;BME280;5668;52.012;8.724;2023-04-20T03:02:24;100495.56;;;8.82;74.99
11223;BME280;5668;52.012;8.724;2023-04-20T03:04:51;100493.88;;;8.81;74.50
11223;BME280;5668;52.012;8.724;2023-04-20T03:07:20;100499.44;;;8.75;74.51
11223;BME280;5668;52.012;8.724;2023-04-20T03:09:47;100493.50;;;8.73;75.60
11223;BME280;5668;52.012;8.724;2023-04-20T03:12:14;100490.66;;;8.78;75.67
11223;BME280;5668;52.012;8.724;2023-04-20T03:14:43;100483.44;;;8.83;75.21
11223;BME280;5668;52.012;8.724;2023-04-20T03:17:10;100480.94;;;8.81;74.63
11223;BME280;5668;52.012;8.724;2023-04-20T03:19:38;100475.03;;;8.79;76.24
11223;BME280;5668;52.012;8.724;2023-04-20T03:22:05;100479.19;;;8.82;75.41
11223;BME280;5668;52.012;8.724;2023-04-20T03:24:34;100489.44;;;8.83;76.48
11223;BME280;5668;52.012;8.724;2023-04-20T03:27:01;100482.59;;;8.82;76.35
11223;BME280;5668;52.012;8.724;2023-04-20T03:29:28;100476.50;;;8.83;76.38
11223;BME280;5668;52.012;8.724;2023-04-20T03:31:56;100484.34;;;8.82;76.12
11223;BME280;5668;52.012;8.724;2023-04-20T03:34:23;100477.41;;;8.82;77.11
11223;BME280;5668;52.012;8.724;2023-04-20T03:36:51;100475.66;;;8.83;76.37
11223;BME280;5668;52.012;8.724;2023-04-20T03:39:19;100474.75;;;8.84;76.36
11223;BME280;5668;52.012;8.724;2023-04-20T03:41:47;100474.81;;;8.82;76.54
11223;BME280;5668;52.012;8.724;2023-04-20T03:44:15;100478.34;;;8.81;76.78
11223;BME280;5668;52.012;8.724;2023-04-20T03:46:42;100479.25;;;8.80;77.42
11223;BME280;5668;52.012;8.724;2023-04-20T03:49:09;100474.91;;;8.81;77.28
11223;BME280;5668;52.012;8.724;2023-04-20T03:51:36;100474.06;;;8.80;77.05
11223;BME280;5668;52.012;8.724;2023-04-20T03:54:04;100470.56;;;8.81;77.28
11223;BME280;5668;52.012;8.724;2023-04-20T03:56:32;100479.09;;;8.83;77.34
11223;BME280;5668;52.012;8.724;2023-04-20T03:59:00;100483.34;;;8.84;77.43
11223;BME280;5668;52.012;8.724;2023-04-20T04:01:27;100483.44;;;8.83;76.89
11223;BME280;5668;52.012;8.724;2023-04-20T04:03:55;100480.00;;;8.82;77.50
11223;BME280;5668;52.012;8.724;2023-04-20T04:06:22;100479.19;;;8.82;77.12
11223;BME280;5668;52.012;8.724;2023-04-20T04:08:49;100482.69;;;8.81;77.97
11223;BME280;5668;52.012;8.724;2023-04-20T04:11:16;100481.31;;;8.75;78.03
11223;BME280;5668;52.012;8.724;2023-04-20T04:13:43;100481.59;;;8.71;79.66
11223;BME280;5668;52.012;8.724;2023-04-20T04:16:12;100484.91;;;8.73;80.32
11223;BME280;5668;52.012;8.724;2023-04-20T04:18:42;100483.16;;;8.73;79.86
11223;BME280;5668;52.012;8.724;2023-04-20T04:21:09;100489.34;;;8.71;80.67
11223;BME280;5668;52.012;8.724;2023-04-20T04:23:37;100486.84;;;8.69;80.71
11223;BME280;5668;52.012;8.724;2023-04-20T04:26:04;100483.50;;;8.67;81.08
11223;BME280;5668;52.012;8.724;2023-04-20T04:28:31;100488.69;;;8.67;81.78
11223;BME280;5668;52.012;8.724;2023-04-20T04:30:58;100488.69;;;8.67;82.43
11223;BME280;5668;52.012;8.724;2023-04-20T04:33:32;100483.44;;;8.69;82.50
11223;BME280;5668;52.012;8.724;2023-04-20T04:35:59;100481.66;;;8.69;81.81
11223;BME280;5668;52.012;8.724;2023-04-20T04:38:27;100483.34;;;8.70;82.05
11223;BME280;5668;52.012;8.724;2023-04-20T04:40:54;100491.84;;;8.72;82.41
11223;BME280;5668;52.012;8.724;2023-04-20T04:43:22;100483.97;;;8.74;82.31
11223;BME280;5668;52.012;8.724;2023-04-20T04:45:50;100483.16;;;8.73;81.64
11223;BME280;5668;52.012;8.724;2023-04-20T04:48:18;100480.56;;;8.73;81.49
11223;BME280;5668;52.012;8.724;2023-04-20T04:50:46;100483.16;;;8.73;81.39
11223;BME280;5668;52.012;8.724;2023-04-20T04:53:14;100477.31;;;8.70;81.25
11223;BME280;5668;52.012;8.724;2023-04-20T04:55:41;100478.34;;;8.67;81.93
11223;BME280;5668;52.012;8.724;2023-04-20T04:58:08;100482.97;;;8.62;82.42
11223;BME280;5668;52.012;8.724;2023-04-20T05:00:35;100478.88;;;8.58;82.53
11223;BME280;5668;52.012;8.724;2023-04-20T05:03:03;100488.31;;;8.59;82.22
11223;BME280;5668;52.012;8.724;2023-04-20T05:05:31;100484.88;;;8.59;83.47
11223;BME280;5668;52.012;8.724;2023-04-20T05:07:59;100492.66;;;8.59;82.66
11223;BME280;5668;52.012;8.724;2023-04-20T05:10:26;100484.81;;;8.60;82.82
11223;BME280;5668;52.012;8.724;2023-04-20T05:12:54;100484.63;;;8.63;83.47
11223;BME280;5668;52.012;8.724;2023-04-20T05:15:23;100485.34;;;8.65;82.34
11223;BME280;5668;52.012;8.724;2023-04-20T05:17:50;100487.94;;;8.65;82.85
11223;BME280;5668;52.012;8.724;2023-04-20T05:20:18;100490.53;;;8.65;82.22
11223;BME280;5668;52.012;8.724;2023-04-20T05:22:46;100487.31;;;8.62;83.43
11223;BME280;5668;52.012;8.724;2023-04-20T05:25:15;100488.16;;;8.62;83.81
11223;BME280;5668;52.012;8.724;2023-04-20T05:27:42;100476.88;;;8.63;83.84
11223;BME280;5668;52.012;8.724;2023-04-20T05:30:09;100482.75;;;8.65;83.34
11223;BME280;5668;52.012;8.724;2023-04-20T05:32:37;100491.38;;;8.66;83.31
11223;BME280;5668;52.012;8.724;2023-04-20T05:35:05;100492.19;;;8.66;83.01
11223;BME280;5668;52.012;8.724;2023-04-20T05:37:32;100495.06;;;8.62;82.83
11223;BME280;5668;52.012;8.724;2023-04-20T05:40:00;100493.56;;;8.58;83.02
11223;BME280;5668;52.012;8.724;2023-04-20T05:42:28;100495.91;;;8.62;83.56
11223;BME280;5668;52.012;8.724;2023-04-20T05:44:55;100496.84;;;8.61;84.04
11223;BME280;5668;52.012;8.724;2023-04-20T05:47:22;100491.81;;;8.58;83.71
11223;BME280;5668;52.012;8.724;2023-04-20T05:49:50;100487.75;;;8.54;83.52
11223;BME280;5668;52.012;8.724;2023-04-20T05:52:17;100491.25;;;8.53;83.93
11223;BME280;5668;52.012;8.724;2023-04-20T05:54:44;100502.47;;;8.53;84.34
11223;BME280;5668;52.012;8.724;2023-04-20T05:57:11;100499.97;;;8.52;84.75
11223;BME280;5668;52.012;8.724;2023-04-20T05:59:40;100499.97;;;8.52;84.33
11223;BME280;5668;52.012;8.724;2023-04-20T06:02:07;100495.59;;;8.52;84.90
11223;BME280;5668;52.012;8.724;2023-04-20T06:04:34;100493.03;;;8.52;85.30
11223;BME280;5668;52.012;8.724;2023-04-20T06:07:02;100495.69;;;8.51;85.22
11223;BME280;5668;52.012;8.724;2023-04-20T06:09:29;100498.13;;;8.54;85.58
11223;BME280;5668;52.012;8.724;2023-04-20T06:11:56;100500.78;;;8.52;85.54
11223;BME280;5668;52.012;8.724;2023-04-20T06:14:25;100500.63;;;8.56;85.62
11223;BME280;5668;52.012;8.724;2023-04-20T06:16:53;100501.47;;;8.56;85.24
11223;BME280;5668;52.012;8.724;2023-04-20T06:19:20;100504.13;;;8.54;84.81
11223;BME280;5668;52.012;8.724;2023-04-20T06:21:48;100501.53;;;8.54;85.23
11223;BME280;5668;52.012;8.724;2023-04-20T06:24:15;100504.13;;;8.54;84.81
11223;BME280;5668;52.012;8.724;2023-04-20T06:26:42;100503.47;;;8.51;85.10
11223;BME280;5668;52.012;8.724;2023-04-20T06:29:09;100508.84;;;8.48;85.17
11223;BME280;5668;52.012;8.724;2023-04-20T06:31:36;100498.56;;;8.46;84.96
11223;BME280;5668;52.012;8.724;2023-04-20T06:34:05;100508.91;;;8.46;85.56
11223;BME280;5668;52.012;8.724;2023-04-20T06:36:32;100503.81;;;8.45;86.18
11223;BME280;5668;52.012;8.724;2023-04-20T06:38:59;100495.13;;;8.46;85.45
11223;BME280;5668;52.012;8.724;2023-04-20T06:41:27;100499.19;;;8.50;85.22
11223;BME280;5668;52.012;8.724;2023-04-20T06:43:54;100494.78;;;8.52;85.62
11223;BME280;5668;52.012;8.724;2023-04-20T06:46:21;100498.88;;;8.56;85.54
11223;BME280;5668;52.012;8.724;2023-04-20T06:48:48;100496.28;;;8.56;85.07
11223;BME280;5668;52.012;8.724;2023-04-20T06:51:17;100493.09;;;8.51;84.83
11223;BME280;5668;52.012;8.724;2023-04-20T06:53:44;100498.38;;;8.49;83.96
11223;BME280;5668;52.012;8.724;2023-04-20T06:56:11;100499.19;;;8.50;84.12
11223;BME280;5668;52.012;8.724;2023-04-20T06:58:38;100494.78;;;8.52;84.12
11223;BME280;5668;52.012;8.724;2023-04-20T07:01:06;100486.25;;;8.50;84.05
11223;BME280;5668;52.012;8.724;2023-04-20T07:03:33;100491.19;;;8.54;84.82
11223;BME280;5668;52.012;8.724;2023-04-20T07:06:00;100479.78;;;8.57;84.36
11223;BME280;5668;52.012;8.724;2023-04-20T07:08:28;100485.72;;;8.59;84.60
11223;BME280;5668;52.012;8.724;2023-04-20T07:10:56;100492.56;;;8.60;84.15
11223;BME280;5668;52.012;8.724;2023-04-20T07:13:23;100487.38;;;8.60;84.15
11223;BME280;5668;52.012;8.724;2023-04-20T07:15:50;100494.06;;;8.64;84.82
11223;BME280;5668;52.012;8.724;2023-04-20T07:18:18;100487.22;;;8.63;83.86
11223;BME280;5668;52.012;8.724;2023-04-20T07:20:45;100481.84;;;8.66;83.81
11223;BME280;5668;52.012;8.724;2023-04-20T07:23:12;100487.03;;;8.66;83.55
11223;BME280;5668;52.012;8.724;2023-04-20T07:25:41;100482.59;;;8.68;83.52
11223;BME280;5668;52.012;8.724;2023-04-20T07:28:08;100489.53;;;8.68;83.67
11223;BME280;5668;52.012;8.724;2023-04-20T07:30:35;100481.84;;;8.66;83.57
11223;BME280;5668;52.012;8.724;2023-04-20T07:33:03;100480.00;;;8.68;83.73
11223;BME280;5668;52.012;8.724;2023-04-20T07:35:30;100480.75;;;8.70;83.24
11223;BME280;5668;52.012;8.724;2023-04-20T07:37:57;100484.06;;;8.72;84.40
11223;BME280;5668;52.012;8.724;2023-04-20T07:40:25;100487.41;;;8.74;83.02
11223;BME280;5668;52.012;8.724;2023-04-20T07:42:53;100495.25;;;8.73;83.68
11223;BME280;5668;52.012;8.724;2023-04-20T07:45:21;100493.41;;;8.75;83.19
11223;BME280;5668;52.012;8.724;2023-04-20T07:47:49;100493.16;;;8.79;83.93
11223;BME280;5668;52.012;8.724;2023-04-20T07:50:19;100490.38;;;8.82;83.58
11223;BME280;5668;52.012;8.724;2023-04-20T07:52:47;100494.47;;;8.86;83.20
11223;BME280;5668;52.012;8.724;2023-04-20T07:55:14;100486.41;;;8.91;83.42
11223;BME280;5668;52.012;8.724;2023-04-20T07:57:42;100489.75;;;8.93;83.09
11223;BME280;5668;52.012;8.724;2023-04-20T08:00:12;100501.50;;;8.99;83.23
11223;BME280;5668;52.012;8.724;2023-04-20T08:02:40;100493.53;;;9.02;82.37
11223;BME280;5668;52.012;8.724;2023-04-20T08:05:07;100494.63;;;9.12;81.98
11223;BME280;5668;52.012;8.724;2023-04-20T08:07:36;100497.59;;;9.20;81.89
11223;BME280;5668;52.012;8.724;2023-04-20T08:10:04;100497.22;;;9.26;81.27
11223;BME280;5668;52.012;8.724;2023-04-20T08:12:31;100485.16;;;9.25;80.70
11223;BME280;5668;52.012;8.724;2023-04-20T08:14:59;100497.41;;;9.23;79.70
11223;BME280;5668;52.012;8.724;2023-04-20T08:17:30;100493.78;;;9.25;80.45
11223;BME280;5668;52.012;8.724;2023-04-20T08:19:57;100491.84;;;9.29;80.56
11223;BME280;5668;52.012;8.724;2023-04-20T08:22:25;100499.09;;;9.24;78.40
11223;BME280;5668;52.012;8.724;2023-04-20T08:24:55;100508.41;;;9.26;78.86
11223;BME280;5668;52.012;8.724;2023-04-20T08:27:22;100500.25;;;9.32;78.97
11223;BME280;5668;52.012;8.724;2023-04-20T08:29:49;100500.00;;;9.37;79.52
11223;BME280;5668;52.012;8.724;2023-04-20T08:32:16;100500.53;;;9.42;79.15
11223;BME280;5668;52.012;8.724;2023-04-20T08:34:49;100503.13;;;9.42;78.78
11223;BME280;5668;52.012;8.724;2023-04-20T08:37:16;100499.78;;;9.40;77.62
11223;BME280;5668;52.012;8.724;2023-04-20T08:39:43;100505.53;;;9.45;77.96
11223;BME280;5668;52.012;8.724;2023-04-20T08:42:11;100508.69;;;9.50;77.34
11223;BME280;5668;52.012;8.724;2023-04-20T08:44:38;100508.75;;;9.49;77.64
11223;BME280;5668;52.012;8.724;2023-04-20T08:47:07;100514.69;;;9.51;77.47
11223;BME280;5668;52.012;8.724;2023-04-20T08:49:35;100504.22;;;9.52;77.36
11223;BME280;5668;52.012;8.724;2023-04-20T08:52:05;100503.19;;;9.55;77.40
11223;BME280;5668;52.012;8.724;2023-04-20T08:54:36;100504.69;;;9.59;77.48
11223;BME280;5668;52.012;8.724;2023-04-20T08:57:04;100508.09;;;9.59;76.71
11223;BME280;5668;52.012;8.724;2023-04-20T08:59:31;100504.50;;;9.62;76.91
11223;BME280;5668;52.012;8.724;2023-04-20T09:02:07;100510.13;;;9.68;76.72
11223;BME280;5668;52.012;8.724;2023-04-20T09:04:36;100511.81;;;9.69;76.62
11223;BME280;5668;52.012;8.724;2023-04-20T09:07:04;100506.41;;;9.73;75.65
11223;BME280;5668;52.012;8.724;2023-04-20T09:09:32;100503.53;;;9.77;76.31
11223;BME280;5668;52.012;8.724;2023-04-20T09:12:00;100510.28;;;9.80;75.56
11223;BME280;5668;52.012;8.724;2023-04-20T09:14:29;100512.47;;;9.86;76.17
11223;BME280;5668;52.012;8.724;2023-04-20T09:16:58;100505.94;;;9.93;76.09
11223;BME280;5668;52.012;8.724;2023-04-20T09:19:28;100511.31;;;10.04;75.83
11223;BME280;5668;52.012;8.724;2023-04-20T09:21:57;100495.84;;;10.15;75.75
11223;BME280;5668;52.012;8.724;2023-04-20T09:24:32;100513.28;;;10.27;75.59
11223;BME280;5668;52.012;8.724;2023-04-20T09:26:59;100505.00;;;10.35;74.60
11223;BME280;5668;52.012;8.724;2023-04-20T09:29:27;100514.13;;;10.40;73.26
11223;BME280;5668;52.012;8.724;2023-04-20T09:31:55;100509.59;;;10.44;72.67
11223;BME280;5668;52.012;8.724;2023-04-20T09:34:24;100514.47;;;10.48;72.23
11223;BME280;5668;52.012;8.724;2023-04-20T09:36:52;100512.50;;;10.52;72.05
11223;BME280;5668;52.012;8.724;2023-04-20T09:39:22;100523.72;;;10.53;72.00
11223;BME280;5668;52.012;8.724;2023-04-20T09:41:51;100519.34;;;10.53;71.63
11223;BME280;5668;52.012;8.724;2023-04-20T09:44:19;100514.28;;;10.52;70.66
11223;BME280;5668;52.012;8.724;2023-04-20T09:46:46;100513.44;;;10.51;70.74
11223;BME280;5668;52.012;8.724;2023-04-20T09:49:14;100514.97;;;10.54;71.21
11223;BME280;5668;52.012;8.724;2023-04-20T09:51:42;100512.38;;;10.54;69.64
11223;BME280;5668;52.012;8.724;2023-04-20T09:54:11;100506.91;;;10.58;68.93
11223;BME280;5668;52.012;8.724;2023-04-20T09:56:40;100508.44;;;10.61;68.99
11223;BME280;5668;52.012;8.724;2023-04-20T09:59:08;100499.63;;;10.63;68.17
11223;BME280;5668;52.012;8.724;2023-04-20T10:01:36;100505.66;;;10.64;68.00
11223;BME280;5668;52.012;8.724;2023-04-20T10:04:08;100505.84;;;10.61;67.99
11223;BME280;5668;52.012;8.724;2023-04-20T10:06:39;100499.72;;;10.62;67.91
11223;BME280;5668;52.012;8.724;2023-04-20T10:09:21;100502.31;;;10.62;67.48
11223;BME280;5668;52.012;8.724;2023-04-20T10:11:49;100500.44;;;10.64;67.48
11223;BME280;5668;52.012;8.724;2023-04-20T10:14:19;100508.25;;;10.64;67.37
11223;BME280;5668;52.012;8.724;2023-04-20T10:17:00;100503.03;;;10.64;67.39
11223;BME280;5668;52.012;8.724;2023-04-20T10:19:45;100502.41;;;10.60;68.16
11223;BME280;5668;52.012;8.724;2023-04-20T10:22:25;100505.13;;;10.59;67.26
11223;BME280;5668;52.012;8.724;2023-04-20T10:24:57;100516.97;;;10.63;67.92
11223;BME280;5668;52.012;8.724;2023-04-20T10:27:25;100508.88;;;10.67;68.33
11223;BME280;5668;52.012;8.724;2023-04-20T10:29:53;100513.56;;;10.75;68.73
11223;BME280;5668;52.012;8.724;2023-04-20T10:32:22;100511.25;;;10.83;68.52
11223;BME280;5668;52.012;8.724;2023-04-20T10:35:00;100513.56;;;10.88;68.06
11223;BME280;5668;52.012;8.724;2023-04-20T10:37:28;100504.59;;;10.92;68.01
11223;BME280;5668;52.012;8.724;2023-04-20T10:39:57;100508.13;;;10.91;67.19
11223;BME280;5668;52.012;8.724;2023-04-20T10:42:24;100501.72;;;10.96;67.26
11223;BME280;5668;52.012;8.724;2023-04-20T10:44:54;100492.56;;;11.03;67.42
11223;BME280;5668;52.012;8.724;2023-04-20T10:47:27;100494.81;;;11.08;67.51
11223;BME280;5668;52.012;8.724;2023-04-20T10:50:01;100497.53;;;11.06;66.83
11223;BME280;5668;52.012;8.724;2023-04-20T10:52:32;100493.16;;;11.07;66.24
11223;BME280;5668;52.012;8.724;2023-04-20T10:55:01;100491.28;;;11.09;65.95
11223;BME280;5668;52.012;8.724;2023-04-20T10:57:28;100496.91;;;11.15;66.63
11223;BME280;5668;52.012;8.724;2023-04-20T10:59:57;100499.06;;;11.21;65.92
11223;BME280;5668;52.012;8.724;2023-04-20T11:02:24;100493.66;;;11.24;65.61
11223;BME280;5668;52.012;8.724;2023-04-20T11:04:52;100492.50;;;11.29;65.47
11223;BME280;5668;52.012;8.724;2023-04-20T11:07:25;100497.50;;;11.32;66.02
11223;BME280;5668;52.012;8.724;2023-04-20T11:09:53;100486.66;;;11.38;66.40
11223;BME280;5668;52.012;8.724;2023-04-20T11:12:21;100491.56;;;11.42;66.15
11223;BME280;5668;52.012;8.724;2023-04-20T11:14:53;100492.25;;;11.44;65.25
11223;BME280;5668;52.012;8.724;2023-04-20T11:17:31;100489.34;;;11.49;65.51
11223;BME280;5668;52.012;8.724;2023-04-20T11:20:06;100490.78;;;11.53;64.76
11223;BME280;5668;52.012;8.724;2023-04-20T11:22:39;100482.66;;;11.57;64.68
11223;BME280;5668;52.012;8.724;2023-04-20T11:25:08;100472.00;;;11.60;64.31
11223;BME280;5668;52.012;8.724;2023-04-20T11:27:36;100471.56;;;11.67;63.93
11223;BME280;5668;52.012;8.724;2023-04-20T11:30:06;100480.09;;;11.69;62.88
11223;BME280;5668;52.012;8.724;2023-04-20T11:32:36;100475.72;;;11.69;62.11
11223;BME280;5668;52.012;8.724;2023-04-20T11:35:08;100469.78;;;11.67;61.60
11223;BME280;5668;52.012;8.724;2023-04-20T11:37:45;100477.81;;;11.77;62.83
11223;BME280;5668;52.012;8.724;2023-04-20T11:40:14;100467.78;;;11.83;61.84
11223;BME280;5668;52.012;8.724;2023-04-20T11:42:42;100480.25;;;11.91;62.17
11223;BME280;5668;52.012;8.724;2023-04-20T11:45:10;100471.28;;;11.95;61.83
11223;BME280;5668;52.012;8.724;2023-04-20T11:47:39;100481.25;;;12.01;61.39
11223;BME280;5668;52.012;8.724;2023-04-20T11:50:09;100475.41;;;11.97;59.92
11223;BME280;5668;52.012;8.724;2023-04-20T11:52:39;100470.22;;;11.97;59.82
11223;BME280;5668;52.012;8.724;2023-04-20T11:55:07;100473.75;;;11.96;60.36
11223;BME280;5668;52.012;8.724;2023-04-20T11:57:34;100474.38;;;12.00;61.00
11223;BME280;5668;52.012;8.724;2023-04-20T12:00:02;100468.44;;;11.98;59.99
11223;BME280;5668;52.012;8.724;2023-04-20T12:02:29;100467.59;;;11.97;60.02
11223;BME280;5668;52.012;8.724;2023-04-20T12:04:58;100459.69;;;11.99;59.73
11223;BME280;5668;52.012;8.724;2023-04-20T12:07:27;100458.50;;;12.03;59.82
11223;BME280;5668;52.012;8.724;2023-04-20T12:09:54;100459.13;;;12.07;59.43
11223;BME280;5668;52.012;8.724;2023-04-20T12:12:21;100460.44;;;12.12;60.18
11223;BME280;5668;52.012;8.724;2023-04-20T12:14:49;100459.59;;;12.12;59.79
11223;BME280;5668;52.012;8.724;2023-04-20T12:17:16;100450.97;;;12.11;59.14
11223;BME280;5668;52.012;8.724;2023-04-20T12:19:43;100459.75;;;12.21;59.08
11223;BME280;5668;52.012;8.724;2023-04-20T12:22:12;100451.84;;;12.23;57.86
11223;BME280;5668;52.012;8.724;2023-04-20T12:24:39;100457.78;;;12.25;57.91
11223;BME280;5668;52.012;8.724;2023-04-20T12:27:06;100452.09;;;12.31;58.19
11223;BME280;5668;52.012;8.724;2023-04-20T12:29:34;100448.78;;;12.29;57.84
11223;BME280;5668;52.012;8.724;2023-04-20T12:32:01;100439.75;;;12.33;57.10
11223;BME280;5668;52.012;8.724;2023-04-20T12:34:28;100452.47;;;12.37;56.85
11223;BME280;5668;52.012;8.724;2023-04-20T12:36:55;100455.81;;;12.39;57.05
11223;BME280;5668;52.012;8.724;2023-04-20T12:39:27;100450.34;;;12.43;56.67
11223;BME280;5668;52.012;8.724;2023-04-20T12:41:55;100452.00;;;12.44;57.16
11223;BME280;5668;52.012;8.724;2023-04-20T12:44:23;100452.84;;;12.44;57.22
11223;BME280;5668;52.012;8.724;2023-04-20T12:46:50;100457.69;;;12.37;56.17
11223;BME280;5668;52.012;8.724;2023-04-20T12:49:17;100451.75;;;12.35;56.06
11223;BME280;5668;52.012;8.724;2023-04-20T12:51:44;100449.97;;;12.36;56.51
11223;BME280;5668;52.012;8.724;2023-04-20T12:54:12;100438.59;;;12.37;56.74
11223;BME280;5668;52.012;8.724;2023-04-20T12:56:40;100448.56;;;12.32;57.64
11223;BME280;5668;52.012;8.724;2023-04-20T12:59:07;100445.81;;;12.33;59.34
11223;BME280;5668;52.012;8.724;2023-04-20T13:01:34;100441.56;;;12.32;58.82
11223;BME280;5668;52.012;8.724;2023-04-20T13:04:02;100439.75;;;12.33;59.07
11223;BME280;5668;52.012;8.724;2023-04-20T13:06:29;100445.69;;;12.35;58.42
11223;BME280;5668;52.012;8.724;2023-04-20T13:08:57;100436.22;;;12.34;58.03
11223;BME280;5668;52.012;8.724;2023-04-20T13:11:24;100429.34;;;12.33;57.42